sensor_id;sensor_type;location;lat;lon;timestamp;pressure;altitude;pressure_sealevel;temperature
15680;BMP180;15488;48.114;11.532;2023-08-06T00:01:13;94718.00;;;22.90
15680;BMP180;15488;48.114;11.532;2023-08-06T00:03:41;94715.00;;;22.80
15680;BMP180;15488;48.114;11.532;2023-08-06T00:06:08;94723.00;;;22.80
15680;BMP180;15488;48.114;11.532;2023-08-06T00:08:36;94722.00;;;22.90
15680;BMP180;15488;48.114;11.532;2023-08-06T00:11:03;94714.00;;;22.70
15680;BMP180;15488;48.114;11.532;2023-08-06T00:13:31;94723.00;;;22.70
15680;BMP180;15488;48.114;11.532;2023-08-06T00:16:10;94730.00;;;22.60
15680;BMP180;15488;48.114;11.532;2023-08-06T00:18:38;94719.00;;;22.60
15680;BMP180;15488;48.114;11.532;2023-08-06T00:21:05;94721.00;;;22.60
15680;BMP180;15488;48.114;11.532;2023-08-06T00:23:33;94713.00;;;22.40
15680;BMP180;15488;48.114;11.532;2023-08-06T00:26:00;94730.00;;;22.30
15680;BMP180;15488;48.114;11.532;2023-08-06T00:28:28;94714.00;;;22.00
15680;BMP180;15488;48.114;11.532;2023-08-06T00:30:55;94723.00;;;22.00
15680;BMP180;15488;48.114;11.532;2023-08-06T00:33:25;94725.00;;;21.90
15680;BMP180;15488;48.114;11.532;2023-08-06T00:35:52;94721.00;;;21.90
15680;BMP180;15488;48.114;11.532;2023-08-06T00:38:20;94717.00;;;22.00
15680;BMP180;15488;48.114;11.532;2023-08-06T00:40:47;94708.00;;;22.00
15680;BMP180;15488;48.114;11.532;2023-08-06T00:43:15;94708.00;;;22.00
15680;BMP180;15488;48.114;11.532;2023-08-06T00:45:42;94708.00;;;22.00
15680;BMP180;15488;48.114;11.532;2023-08-06T00:48:10;94716.00;;;22.00
15680;BMP180;15488;48.114;11.532;2023-08-06T00:50:39;94709.00;;;22.00
15680;BMP180;15488;48.114;11.532;2023-08-06T00:53:07;94711.00;;;22.00
15680;BMP180;15488;48.114;11.532;2023-08-06T00:55:35;94711.00;;;21.90
15680;BMP180;15488;48.114;11.532;2023-08-06T00:58:02;94705.00;;;21.90
15680;BMP180;15488;48.114;11.532;2023-08-06T01:00:31;94705.00;;;21.80
15680;BMP180;15488;48.114;11.532;2023-08-06T01:02:58;94699.00;;;21.80
15680;BMP180;15488;48.114;11.532;2023-08-06T01:05:25;94700.00;;;21.80
15680;BMP180;15488;48.114;11.532;2023-08-06T01:08:07;94696.00;;;21.80
15680;BMP180;15488;48.114;11.532;2023-08-06T01:10:44;94695.00;;;21.80
15680;BMP180;15488;48.114;11.532;2023-08-06T01:13:23;94707.00;;;21.80
15680;BMP180;15488;48.114;11.532;2023-08-06T01:15:55;94700.00;;;21.80
15680;BMP180;15488;48.114;11.532;2023-08-06T01:18:24;94691.00;;;21.80
15680;BMP180;15488;48.114;11.532;2023-08-06T01:20:53;94688.00;;;21.80
15680;BMP180;15488;48.114;11.532;2023-08-06T01:23:20;94682.00;;;21.40
15680;BMP180;15488;48.114;11.532;2023-08-06T01:25:52;94677.00;;;21.70
15680;BMP180;15488;48.114;11.532;2023-08-06T01:28:27;94669.00;;;21.70
15680;BMP180;15488;48.114;11.532;2023-08-06T01:30:59;94671.00;;;21.70
15680;BMP180;15488;48.114;11.532;2023-08-06T01:33:29;94667.00;;;21.70
15680;BMP180;15488;48.114;11.532;2023-08-06T01:36:00;94666.00;;;21.60
15680;BMP180;15488;48.114;11.532;2023-08-06T01:38:28;94664.00;;;21.60
15680;BMP180;15488;48.114;11.532;2023-08-06T01:40:55;94668.00;;;21.60
15680;BMP180;15488;48.114;11.532;2023-08-06T01:43:23;94666.00;;;21.60
15680;BMP180;15488;48.114;11.532;2023-08-06T01:45:50;94668.00;;;21.60
15680;BMP180;15488;48.114;11.532;2023-08-06T01:48:18;94672.00;;;21.50
15680;BMP180;15488;48.114;11.532;2023-08-06T01:50:45;94661.00;;;21.50
15680;BMP180;15488;48.114;11.532;2023-08-06T01:53:14;94668.00;;;21.50
15680;BMP180;15488;48.114;11.532;2023-08-06T01:55:41;94663.00;;;21.50
15680;BMP180;15488;48.114;11.532;2023-08-06T01:58:09;94659.00;;;21.60
15680;BMP180;15488;48.114;11.532;2023-08-06T02:00:36;94655.00;;;21.60
15680;BMP180;15488;48.114;11.532;2023-08-06T02:03:04;94654.00;;;21.60
15680;BMP180;15488;48.114;11.532;2023-08-06T02:05:31;94651.00;;;21.50
15680;BMP180;15488;48.114;11.532;2023-08-06T02:07:58;94649.00;;;21.40
15680;BMP180;15488;48.114;11.532;2023-08-06T02:10:27;94651.00;;;21.30
15680;BMP180;15488;48.114;11.532;2023-08-06T02:12:55;94649.00;;;21.20
15680;BMP180;15488;48.114;11.532;2023-08-06T02:15:22;94643.00;;;21.30
15680;BMP180;15488;48.114;11.532;2023-08-06T02:17:50;94646.00;;;21.20
15680;BMP180;15488;48.114;11.532;2023-08-06T02:20:17;94640.00;;;21.20
15680;BMP180;15488;48.114;11.532;2023-08-06T02:22:45;94635.00;;;21.30
15680;BMP180;15488;48.114;11.532;2023-08-06T02:25:12;94635.00;;;21.30
15680;BMP180;15488;48.114;11.532;2023-08-06T02:27:41;94628.00;;;21.30
15680;BMP180;15488;48.114;11.532;2023-08-06T02:30:08;94627.00;;;21.30
15680;BMP180;15488;48.114;11.532;2023-08-06T02:32:36;94628.00;;;21.30
15680;BMP180;15488;48.114;11.532;2023-08-06T02:35:04;94618.00;;;21.40
15680;BMP180;15488;48.114;11.532;2023-08-06T02:37:33;94614.00;;;21.40
15680;BMP180;15488;48.114;11.532;2023-08-06T02:40:01;94611.00;;;21.30
15680;BMP180;15488;48.114;11.532;2023-08-06T02:42:29;94605.00;;;21.30
15680;BMP180;15488;48.114;11.532;2023-08-06T02:44:58;94605.00;;;21.20
15680;BMP180;15488;48.114;11.532;2023-08-06T02:47:25;94593.00;;;21.20
15680;BMP180;15488;48.114;11.532;2023-08-06T02:49:53;94581.00;;;21.20
15680;BMP180;15488;48.114;11.532;2023-08-06T02:52:20;94583.00;;;21.20
15680;BMP180;15488;48.114;11.532;2023-08-06T02:54:48;94581.00;;;21.30
15680;BMP180;15488;48.114;11.532;2023-08-06T02:57:15;94580.00;;;21.20
15680;BMP180;15488;48.114;11.532;2023-08-06T02:59:42;94582.00;;;21.20
15680;BMP180;15488;48.114;11.532;2023-08-06T03:02:11;94578.00;;;21.10
15680;BMP180;15488;48.114;11.532;2023-08-06T03:04:39;94581.00;;;21.20
15680;BMP180;15488;48.114;11.532;2023-08-06T03:07:06;94579.00;;;21.00
15680;BMP180;15488;48.114;11.532;2023-08-06T03:09:34;94580.00;;;21.00
15680;BMP180;15488;48.114;11.532;2023-08-06T03:12:01;94586.00;;;21.10
15680;BMP180;15488;48.114;11.532;2023-08-06T03:14:28;94606.00;;;21.00
15680;BMP180;15488;48.114;11.532;2023-08-06T03:16:56;94600.00;;;21.10
15680;BMP180;15488;48.114;11.532;2023-08-06T03:19:25;94597.00;;;21.00
15680;BMP180;15488;48.114;11.532;2023-08-06T03:21:52;94601.00;;;20.90
15680;BMP180;15488;48.114;11.532;2023-08-06T03:24:20;94593.00;;;20.90
15680;BMP180;15488;48.114;11.532;2023-08-06T03:26:48;94590.00;;;20.90
15680;BMP180;15488;48.114;11.532;2023-08-06T03:29:15;94592.00;;;20.90
15680;BMP180;15488;48.114;11.532;2023-08-06T03:31:42;94590.00;;;20.80
15680;BMP180;15488;48.114;11.532;2023-08-06T03:34:10;94586.00;;;20.80
15680;BMP180;15488;48.114;11.532;2023-08-06T03:36:39;94587.00;;;20.80
15680;BMP180;15488;48.114;11.532;2023-08-06T03:39:07;94589.00;;;20.80
15680;BMP180;15488;48.114;11.532;2023-08-06T03:41:34;94588.00;;;20.80
15680;BMP180;15488;48.114;11.532;2023-08-06T03:44:00;94580.00;;;20.80
15680;BMP180;15488;48.114;11.532;2023-08-06T03:46:29;94585.00;;;20.80
15680;BMP180;15488;48.114;11.532;2023-08-06T03:48:58;94580.00;;;20.80
15680;BMP180;15488;48.114;11.532;2023-08-06T03:51:25;94582.00;;;20.70
15680;BMP180;15488;48.114;11.532;2023-08-06T03:53:54;94579.00;;;20.60
15680;BMP180;15488;48.114;11.532;2023-08-06T03:56:22;94574.00;;;20.70
15680;BMP180;15488;48.114;11.532;2023-08-06T03:58:49;94572.00;;;20.70
15680;BMP180;15488;48.114;11.532;2023-08-06T04:01:17;94571.00;;;20.80
15680;BMP180;15488;48.114;11.532;2023-08-06T04:03:44;94572.00;;;20.70
15680;BMP180;15488;48.114;11.532;2023-08-06T04:06:11;94581.00;;;20.70
15680;BMP180;15488;48.114;11.532;2023-08-06T04:08:39;94573.00;;;20.70
15680;BMP180;15488;48.114;11.532;2023-08-06T04:11:08;94577.00;;;20.70
15680;BMP180;15488;48.114;11.532;2023-08-06T04:13:35;94565.00;;;20.70
15680;BMP180;15488;48.114;11.532;2023-08-06T04:16:02;94568.00;;;20.50
15680;BMP180;15488;48.114;11.532;2023-08-06T04:18:30;94572.00;;;20.50
15680;BMP180;15488;48.114;11.532;2023-08-06T04:20:57;94568.00;;;20.50
15680;BMP180;15488;48.114;11.532;2023-08-06T04:23:25;94573.00;;;20.50
15680;BMP180;15488;48.114;11.532;2023-08-06T04:25:55;94574.00;;;20.50
15680;BMP180;15488;48.114;11.532;2023-08-06T04:28:24;94578.00;;;20.30
15680;BMP180;15488;48.114;11.532;2023-08-06T04:30:52;94580.00;;;20.30
15680;BMP180;15488;48.114;11.532;2023-08-06T04:33:20;94581.00;;;20.10
15680;BMP180;15488;48.114;11.532;2023-08-06T04:35:47;94578.00;;;20.20
15680;BMP180;15488;48.114;11.532;2023-08-06T04:38:15;94586.00;;;20.20
15680;BMP180;15488;48.114;11.532;2023-08-06T04:40:42;94586.00;;;20.20
15680;BMP180;15488;48.114;11.532;2023-08-06T04:43:10;94585.00;;;20.10
15680;BMP180;15488;48.114;11.532;2023-08-06T04:45:39;94590.00;;;20.10
15680;BMP180;15488;48.114;11.532;2023-08-06T04:48:12;94585.00;;;20.00
15680;BMP180;15488;48.114;11.532;2023-08-06T04:50:43;94584.00;;;20.10
15680;BMP180;15488;48.114;11.532;2023-08-06T04:53:11;94578.00;;;20.30
15680;BMP180;15488;48.114;11.532;2023-08-06T04:55:39;94578.00;;;20.20
15680;BMP180;15488;48.114;11.532;2023-08-06T04:58:06;94582.00;;;20.30
15680;BMP180;15488;48.114;11.532;2023-08-06T05:00:34;94574.00;;;20.30
15680;BMP180;15488;48.114;11.532;2023-08-06T05:03:03;94573.00;;;20.30
15680;BMP180;15488;48.114;11.532;2023-08-06T05:05:31;94573.00;;;20.30
15680;BMP180;15488;48.114;11.532;2023-08-06T05:07:58;94572.00;;;20.30
15680;BMP180;15488;48.114;11.532;2023-08-06T05:10:26;94570.00;;;20.30
15680;BMP180;15488;48.114;11.532;2023-08-06T05:12:53;94566.00;;;20.30
15680;BMP180;15488;48.114;11.532;2023-08-06T05:15:21;94566.00;;;20.30
15680;BMP180;15488;48.114;11.532;2023-08-06T05:17:48;94576.00;;;20.40
15680;BMP180;15488;48.114;11.532;2023-08-06T05:20:17;94568.00;;;20.30
15680;BMP180;15488;48.114;11.532;2023-08-06T05:22:45;94571.00;;;20.50
15680;BMP180;15488;48.114;11.532;2023-08-06T05:25:14;94576.00;;;20.60
15680;BMP180;15488;48.114;11.532;2023-08-06T05:27:41;94573.00;;;20.60
15680;BMP180;15488;48.114;11.532;2023-08-06T05:30:10;94579.00;;;20.60
15680;BMP180;15488;48.114;11.532;2023-08-06T05:32:37;94580.00;;;20.70
15680;BMP180;15488;48.114;11.532;2023-08-06T05:35:05;94585.00;;;20.70
15680;BMP180;15488;48.114;11.532;2023-08-06T05:37:34;94583.00;;;20.70
15680;BMP180;15488;48.114;11.532;2023-08-06T05:40:02;94580.00;;;20.70
15680;BMP180;15488;48.114;11.532;2023-08-06T05:42:30;94586.00;;;20.80
15680;BMP180;15488;48.114;11.532;2023-08-06T05:44:58;94585.00;;;20.80
15680;BMP180;15488;48.114;11.532;2023-08-06T05:47:25;94582.00;;;20.80
15680;BMP180;15488;48.114;11.532;2023-08-06T05:49:53;94585.00;;;20.90
15680;BMP180;15488;48.114;11.532;2023-08-06T05:52:20;94583.00;;;20.90
15680;BMP180;15488;48.114;11.532;2023-08-06T05:54:49;94583.00;;;21.00
15680;BMP180;15488;48.114;11.532;2023-08-06T05:57:16;94570.00;;;21.00
15680;BMP180;15488;48.114;11.532;2023-08-06T05:59:44;94570.00;;;21.10
15680;BMP180;15488;48.114;11.532;2023-08-06T06:02:11;94576.00;;;21.10
15680;BMP180;15488;48.114;11.532;2023-08-06T06:04:40;94576.00;;;21.10
15680;BMP180;15488;48.114;11.532;2023-08-06T06:07:08;94573.00;;;21.20
15680;BMP180;15488;48.114;11.532;2023-08-06T06:09:35;94573.00;;;21.20
15680;BMP180;15488;48.114;11.532;2023-08-06T06:12:05;94578.00;;;21.10
15680;BMP180;15488;48.114;11.532;2023-08-06T06:14:32;94586.00;;;21.30
15680;BMP180;15488;48.114;11.532;2023-08-06T06:17:00;94589.00;;;21.20
15680;BMP180;15488;48.114;11.532;2023-08-06T06:19:27;94594.00;;;21.30
15680;BMP180;15488;48.114;11.532;2023-08-06T06:21:55;94589.00;;;21.20
15680;BMP180;15488;48.114;11.532;2023-08-06T06:24:23;94589.00;;;21.20
15680;BMP180;15488;48.114;11.532;2023-08-06T06:26:51;94588.00;;;21.30
15680;BMP180;15488;48.114;11.532;2023-08-06T06:29:20;94583.00;;;21.40
15680;BMP180;15488;48.114;11.532;2023-08-06T06:31:47;94584.00;;;21.30
15680;BMP180;15488;48.114;11.532;2023-08-06T06:34:14;94585.00;;;21.40
15680;BMP180;15488;48.114;11.532;2023-08-06T06:36:42;94581.00;;;21.40
15680;BMP180;15488;48.114;11.532;2023-08-06T06:39:09;94572.00;;;21.40
15680;BMP180;15488;48.114;11.532;2023-08-06T06:41:37;94584.00;;;21.50
15680;BMP180;15488;48.114;11.532;2023-08-06T06:44:05;94583.00;;;21.30
15680;BMP180;15488;48.114;11.532;2023-08-06T06:46:34;94580.00;;;21.40
15680;BMP180;15488;48.114;11.532;2023-08-06T06:49:01;94579.00;;;21.40
15680;BMP180;15488;48.114;11.532;2023-08-06T06:51:29;94584.00;;;21.50
15680;BMP180;15488;48.114;11.532;2023-08-06T06:53:58;94587.00;;;21.60
15680;BMP180;15488;48.114;11.532;2023-08-06T06:56:25;94584.00;;;21.60
15680;BMP180;15488;48.114;11.532;2023-08-06T06:58:52;94588.00;;;21.60
15680;BMP180;15488;48.114;11.532;2023-08-06T07:01:20;94587.00;;;21.60
15680;BMP180;15488;48.114;11.532;2023-08-06T07:03:49;94594.00;;;21.70
15680;BMP180;15488;48.114;11.532;2023-08-06T07:06:16;94596.00;;;21.60
15680;BMP180;15488;48.114;11.532;2023-08-06T07:08:44;94589.00;;;21.50
15680;BMP180;15488;48.114;11.532;2023-08-06T07:11:12;94593.00;;;21.60
15680;BMP180;15488;48.114;11.532;2023-08-06T07:13:39;94593.00;;;21.50
15680;BMP180;15488;48.114;11.532;2023-08-06T07:16:07;94593.00;;;21.60
15680;BMP180;15488;48.114;11.532;2023-08-06T07:18:34;94601.00;;;21.60
15680;BMP180;15488;48.114;11.532;2023-08-06T07:21:03;94608.00;;;21.70
15680;BMP180;15488;48.114;11.532;2023-08-06T07:23:30;94602.00;;;21.60
15680;BMP180;15488;48.114;11.532;2023-08-06T07:25:58;94600.00;;;21.60
15680;BMP180;15488;48.114;11.532;2023-08-06T07:28:25;94595.00;;;21.60
15680;BMP180;15488;48.114;11.532;2023-08-06T07:30:53;94618.00;;;21.60
15680;BMP180;15488;48.114;11.532;2023-08-06T07:33:20;94591.00;;;21.60
15680;BMP180;15488;48.114;11.532;2023-08-06T07:35:48;94594.00;;;21.60
15680;BMP180;15488;48.114;11.532;2023-08-06T07:38:16;94592.00;;;21.50
15680;BMP180;15488;48.114;11.532;2023-08-06T07:40:44;94593.00;;;21.60
15680;BMP180;15488;48.114;11.532;2023-08-06T07:43:12;94589.00;;;21.60
15680;BMP180;15488;48.114;11.532;2023-08-06T07:45:39;94589.00;;;21.30
15680;BMP180;15488;48.114;11.532;2023-08-06T07:48:07;94588.00;;;21.60
15680;BMP180;15488;48.114;11.532;2023-08-06T07:50:34;94586.00;;;21.50
15680;BMP180;15488;48.114;11.532;2023-08-06T07:53:01;94580.00;;;21.50
15680;BMP180;15488;48.114;11.532;2023-08-06T07:55:31;94581.00;;;21.70
15680;BMP180;15488;48.114;11.532;2023-08-06T07:57:58;94575.00;;;21.80
15680;BMP180;15488;48.114;11.532;2023-08-06T08:00:26;94575.00;;;21.70
15680;BMP180;15488;48.114;11.532;2023-08-06T08:02:53;94570.00;;;21.90
15680;BMP180;15488;48.114;11.532;2023-08-06T08:05:20;94584.00;;;21.90
15680;BMP180;15488;48.114;11.532;2023-08-06T08:07:48;94572.00;;;21.90
15680;BMP180;15488;48.114;11.532;2023-08-06T08:10:15;94566.00;;;22.00
15680;BMP180;15488;48.114;11.532;2023-08-06T08:12:44;94569.00;;;21.90
15680;BMP180;15488;48.114;11.532;2023-08-06T08:15:13;94565.00;;;22.00
15680;BMP180;15488;48.114;11.532;2023-08-06T08:17:41;94564.00;;;22.00
15680;BMP180;15488;48.114;11.532;2023-08-06T08:20:09;94568.00;;;22.10
15680;BMP180;15488;48.114;11.532;2023-08-06T08:22:36;94553.00;;;22.10
15680;BMP180;15488;48.114;11.532;2023-08-06T08:25:04;94555.00;;;22.00
15680;BMP180;15488;48.114;11.532;2023-08-06T08:27:32;94548.00;;;22.20
15680;BMP180;15488;48.114;11.532;2023-08-06T08:30:01;94549.00;;;22.40
15680;BMP180;15488;48.114;11.532;2023-08-06T08:32:28;94546.00;;;22.40
15680;BMP180;15488;48.114;11.532;2023-08-06T08:34:55;94542.00;;;22.40
15680;BMP180;15488;48.114;11.532;2023-08-06T08:37:23;94542.00;;;22.30
15680;BMP180;15488;48.114;11.532;2023-08-06T08:39:51;94543.00;;;22.30
15680;BMP180;15488;48.114;11.532;2023-08-06T08:42:19;94546.00;;;22.30
15680;BMP180;15488;48.114;11.532;2023-08-06T08:44:47;94552.00;;;22.50
15680;BMP180;15488;48.114;11.532;2023-08-06T08:47:16;94560.00;;;22.40
15680;BMP180;15488;48.114;11.532;2023-08-06T08:49:44;94575.00;;;22.40
15680;BMP180;15488;48.114;11.532;2023-08-06T08:52:12;94561.00;;;22.10
15680;BMP180;15488;48.114;11.532;2023-08-06T08:54:42;94559.00;;;22.00
15680;BMP180;15488;48.114;11.532;2023-08-06T08:57:10;94575.00;;;22.00
15680;BMP180;15488;48.114;11.532;2023-08-06T08:59:38;94573.00;;;22.20
15680;BMP180;15488;48.114;11.532;2023-08-06T09:02:05;94588.00;;;22.00
15680;BMP180;15488;48.114;11.532;2023-08-06T09:04:37;94572.00;;;21.90
15680;BMP180;15488;48.114;11.532;2023-08-06T09:07:05;94567.00;;;22.00
15680;BMP180;15488;48.114;11.532;2023-08-06T09:09:34;94580.00;;;21.90
15680;BMP180;15488;48.114;11.532;2023-08-06T09:12:10;94582.00;;;21.70
15680;BMP180;15488;48.114;11.532;2023-08-06T09:14:38;94591.00;;;21.90
15680;BMP180;15488;48.114;11.532;2023-08-06T09:17:05;94587.00;;;21.90
15680;BMP180;15488;48.114;11.532;2023-08-06T09:19:33;94585.00;;;21.70
15680;BMP180;15488;48.114;11.532;2023-08-06T09:22:02;94585.00;;;21.60
15680;BMP180;15488;48.114;11.532;2023-08-06T09:24:39;94580.00;;;21.40
15680;BMP180;15488;48.114;11.532;2023-08-06T09:27:11;94585.00;;;21.40
15680;BMP180;15488;48.114;11.532;2023-08-06T09:29:41;94591.00;;;21.20
15680;BMP180;15488;48.114;11.532;2023-08-06T09:32:10;94583.00;;;21.40
15680;BMP180;15488;48.114;11.532;2023-08-06T09:34:39;94598.00;;;21.50
15680;BMP180;15488;48.114;11.532;2023-08-06T09:37:12;94591.00;;;21.40
15680;BMP180;15488;48.114;11.532;2023-08-06T09:39:40;94589.00;;;21.30
15680;BMP180;15488;48.114;11.532;2023-08-06T09:42:07;94588.00;;;21.10
15680;BMP180;15488;48.114;11.532;2023-08-06T09:44:35;94586.00;;;21.10
15680;BMP180;15488;48.114;11.532;2023-08-06T09:47:05;94620.00;;;20.90
15680;BMP180;15488;48.114;11.532;2023-08-06T09:49:41;94581.00;;;21.00
15680;BMP180;15488;48.114;11.532;2023-08-06T09:52:13;94598.00;;;21.10
15680;BMP180;15488;48.114;11.532;2023-08-06T09:54:43;94585.00;;;21.20
15680;BMP180;15488;48.114;11.532;2023-08-06T09:57:12;94596.00;;;21.40
15680;BMP180;15488;48.114;11.532;2023-08-06T09:59:41;94594.00;;;21.30
15680;BMP180;15488;48.114;11.532;2023-08-06T10:02:13;94597.00;;;21.20
15680;BMP180;15488;48.114;11.532;2023-08-06T10:04:44;94583.00;;;21.00
15680;BMP180;15488;48.114;11.532;2023-08-06T10:07:13;94595.00;;;21.30
15680;BMP180;15488;48.114;11.532;2023-08-06T10:09:40;94605.00;;;21.30
15680;BMP180;15488;48.114;11.532;2023-08-06T10:12:10;94596.00;;;21.20
15680;BMP180;15488;48.114;11.532;2023-08-06T10:14:38;94620.00;;;21.30
15680;BMP180;15488;48.114;11.532;2023-08-06T10:17:07;94614.00;;;21.10
15680;BMP180;15488;48.114;11.532;2023-08-06T10:19:36;94599.00;;;21.10
15680;BMP180;15488;48.114;11.532;2023-08-06T10:22:14;94597.00;;;21.40
15680;BMP180;15488;48.114;11.532;2023-08-06T10:24:50;94588.00;;;21.60
15680;BMP180;15488;48.114;11.532;2023-08-06T10:27:21;94598.00;;;21.60
15680;BMP180;15488;48.114;11.532;2023-08-06T10:29:49;94617.00;;;21.60
15680;BMP180;15488;48.114;11.532;2023-08-06T10:32:17;94602.00;;;21.40
15680;BMP180;15488;48.114;11.532;2023-08-06T10:34:59;94627.00;;;21.50
15680;BMP180;15488;48.114;11.532;2023-08-06T10:37:35;94606.00;;;21.50
15680;BMP180;15488;48.114;11.532;2023-08-06T10:40:06;94604.00;;;21.40
15680;BMP180;15488;48.114;11.532;2023-08-06T10:42:33;94618.00;;;21.40
15680;BMP180;15488;48.114;11.532;2023-08-06T10:45:15;94616.00;;;21.30
15680;BMP180;15488;48.114;11.532;2023-08-06T10:47:43;94609.00;;;21.30
15680;BMP180;15488;48.114;11.532;2023-08-06T10:50:12;94611.00;;;21.20
15680;BMP180;15488;48.114;11.532;2023-08-06T10:52:44;94614.00;;;21.30
15680;BMP180;15488;48.114;11.532;2023-08-06T10:55:11;94620.00;;;21.40
15680;BMP180;15488;48.114;11.532;2023-08-06T10:57:39;94603.00;;;21.50
15680;BMP180;15488;48.114;11.532;2023-08-06T11:00:08;94603.00;;;21.70
15680;BMP180;15488;48.114;11.532;2023-08-06T11:02:37;94613.00;;;21.80
15680;BMP180;15488;48.114;11.532;2023-08-06T11:05:06;94616.00;;;22.00
15680;BMP180;15488;48.114;11.532;2023-08-06T11:07:34;94609.00;;;21.80
15680;BMP180;15488;48.114;11.532;2023-08-06T11:10:04;94643.00;;;21.70
15680;BMP180;15488;48.114;11.532;2023-08-06T11:12:32;94610.00;;;21.70
15680;BMP180;15488;48.114;11.532;2023-08-06T11:15:00;94626.00;;;21.70
15680;BMP180;15488;48.114;11.532;2023-08-06T11:17:29;94619.00;;;21.50
15680;BMP180;15488;48.114;11.532;2023-08-06T11:19:59;94632.00;;;21.40
15680;BMP180;15488;48.114;11.532;2023-08-06T11:22:27;94626.00;;;21.30
15680;BMP180;15488;48.114;11.532;2023-08-06T11:24:55;94635.00;;;21.40
15680;BMP180;15488;48.114;11.532;2023-08-06T11:27:27;94621.00;;;21.40
15680;BMP180;15488;48.114;11.532;2023-08-06T11:29:55;94630.00;;;21.40
15680;BMP180;15488;48.114;11.532;2023-08-06T11:32:23;94640.00;;;21.50
15680;BMP180;15488;48.114;11.532;2023-08-06T11:34:50;94662.00;;;21.50
15680;BMP180;15488;48.114;11.532;2023-08-06T11:37:21;94641.00;;;21.50
15680;BMP180;15488;48.114;11.532;2023-08-06T11:39:50;94642.00;;;21.70
15680;BMP180;15488;48.114;11.532;2023-08-06T11:42:18;94641.00;;;21.50
15680;BMP180;15488;48.114;11.532;2023-08-06T11:44:47;94643.00;;;21.40
15680;BMP180;15488;48.114;11.532;2023-08-06T11:47:15;94636.00;;;21.20
15680;BMP180;15488;48.114;11.532;2023-08-06T11:49:46;94633.00;;;21.40
15680;BMP180;15488;48.114;11.532;2023-08-06T11:52:15;94636.00;;;21.50
15680;BMP180;15488;48.114;11.532;2023-08-06T11:54:46;94642.00;;;21.80
15680;BMP180;15488;48.114;11.532;2023-08-06T11:57:14;94640.00;;;21.70
15680;BMP180;15488;48.114;11.532;2023-08-06T11:59:42;94653.00;;;21.70
15680;BMP180;15488;48.114;11.532;2023-08-06T12:02:11;94658.00;;;21.80
15680;BMP180;15488;48.114;11.532;2023-08-06T12:05:12;94665.00;;;21.70
15680;BMP180;15488;48.114;11.532;2023-08-06T12:07:40;94670.00;;;21.30
15680;BMP180;15488;48.114;11.532;2023-08-06T12:10:09;94657.00;;;21.40
15680;BMP180;15488;48.114;11.532;2023-08-06T12:12:36;94654.00;;;21.50
15680;BMP180;15488;48.114;11.532;2023-08-06T12:15:05;94657.00;;;21.50
15680;BMP180;15488;48.114;11.532;2023-08-06T12:17:35;94663.00;;;21.30
15680;BMP180;15488;48.114;11.532;2023-08-06T12:20:05;94661.00;;;21.20
15680;BMP180;15488;48.114;11.532;2023-08-06T12:22:34;94658.00;;;21.40
15680;BMP180;15488;48.114;11.532;2023-08-06T12:25:02;94658.00;;;21.30
15680;BMP180;15488;48.114;11.532;2023-08-06T12:27:32;94647.00;;;21.40
15680;BMP180;15488;48.114;11.532;2023-08-06T12:30:00;94655.00;;;21.40
15680;BMP180;15488;48.114;11.532;2023-08-06T12:32:29;94659.00;;;21.40
15680;BMP180;15488;48.114;11.532;2023-08-06T12:34:58;94640.00;;;21.40
15680;BMP180;15488;48.114;11.532;2023-08-06T12:37:26;94648.00;;;21.40
15680;BMP180;15488;48.114;11.532;2023-08-06T12:39:54;94647.00;;;21.40
15680;BMP180;15488;48.114;11.532;2023-08-06T12:42:22;94663.00;;;21.60
15680;BMP180;15488;48.114;11.532;2023-08-06T12:44:50;94656.00;;;21.50
15680;BMP180;15488;48.114;11.532;2023-08-06T12:47:18;94668.00;;;21.50
15680;BMP180;15488;48.114;11.532;2023-08-06T12:49:46;94671.00;;;21.50
15680;BMP180;15488;48.114;11.532;2023-08-06T12:52:14;94681.00;;;21.50
15680;BMP180;15488;48.114;11.532;2023-08-06T12:54:42;94685.00;;;21.70
15680;BMP180;15488;48.114;11.532;2023-08-06T12:57:12;94678.00;;;21.80
15680;BMP180;15488;48.114;11.532;2023-08-06T12:59:39;94688.00;;;21.80
15680;BMP180;15488;48.114;11.532;2023-08-06T13:02:07;94685.00;;;21.80
15680;BMP180;15488;48.114;11.532;2023-08-06T13:04:35;94684.00;;;21.70
15680;BMP180;15488;48.114;11.532;2023-08-06T13:07:02;94694.00;;;21.70
15680;BMP180;15488;48.114;11.532;2023-08-06T13:09:33;94683.00;;;21.60
15680;BMP180;15488;48.114;11.532;2023-08-06T13:12:01;94695.00;;;21.60
15680;BMP180;15488;48.114;11.532;2023-08-06T13:14:32;94694.00;;;21.80
15680;BMP180;15488;48.114;11.532;2023-08-06T13:16:59;94694.00;;;21.80
15680;BMP180;15488;48.114;11.532;2023-08-06T13:19:27;94699.00;;;21.60
15680;BMP180;15488;48.114;11.532;2023-08-06T13:22:02;94701.00;;;21.70
15680;BMP180;15488;48.114;11.532;2023-08-06T13:24:33;94714.00;;;21.50
15680;BMP180;15488;48.114;11.532;2023-08-06T13:27:01;94698.00;;;21.30
15680;BMP180;15488;48.114;11.532;2023-08-06T13:29:29;94729.00;;;21.20
15680;BMP180;15488;48.114;11.532;2023-08-06T13:31:56;94720.00;;;21.00
15680;BMP180;15488;48.114;11.532;2023-08-06T13:34:24;94710.00;;;21.10
15680;BMP180;15488;48.114;11.532;2023-08-06T13:36:51;94706.00;;;20.90
15680;BMP180;15488;48.114;11.532;2023-08-06T13:39:19;94703.00;;;21.00
15680;BMP180;15488;48.114;11.532;2023-08-06T13:41:47;94704.00;;;21.00
15680;BMP180;15488;48.114;11.532;2023-08-06T13:44:15;94702.00;;;21.30
15680;BMP180;15488;48.114;11.532;2023-08-06T13:46:43;94700.00;;;21.40
15680;BMP180;15488;48.114;11.532;2023-08-06T13:49:10;94703.00;;;21.40
15680;BMP180;15488;48.114;11.532;2023-08-06T13:51:37;94704.00;;;21.60
15680;BMP180;15488;48.114;11.532;2023-08-06T13:54:05;94707.00;;;21.50
15680;BMP180;15488;48.114;11.532;2023-08-06T13:56:34;94715.00;;;21.60
15680;BMP180;15488;48.114;11.532;2023-08-06T13:59:04;94715.00;;;21.50
15680;BMP180;15488;48.114;11.532;2023-08-06T14:01:32;94722.00;;;21.30
15680;BMP180;15488;48.114;11.532;2023-08-06T14:04:00;94717.00;;;21.20